createdAt,value
2022-07-29T00:01:23.101Z,23.92
2022-07-29T00:03:45.974Z,23.92
2022-07-29T00:06:08.764Z,23.85
2022-07-29T00:08:31.682Z,23.82
2022-07-29T00:10:54.404Z,23.82
2022-07-29T00:13:17.070Z,23.86
2022-07-29T00:15:39.681Z,23.87
2022-07-29T00:18:02.366Z,23.89
2022-07-29T00:20:25.286Z,23.86
2022-07-29T00:22:48.050Z,23.73
2022-07-29T00:25:10.874Z,23.68
2022-07-29T00:27:33.713Z,23.69
2022-07-29T00:29:56.287Z,23.70
2022-07-29T00:32:18.971Z,23.65
2022-07-29T00:35:00.277Z,23.63
2022-07-29T00:37:23.016Z,23.54
2022-07-29T00:39:45.740Z,23.61
2022-07-29T00:42:09.003Z,23.55
2022-07-29T00:44:31.526Z,23.49
2022-07-29T00:46:54.185Z,23.51
2022-07-29T00:49:16.885Z,23.55
2022-07-29T00:51:40.067Z,23.44
2022-07-29T00:54:04.147Z,23.48
2022-07-29T00:56:26.917Z,23.39
2022-07-29T00:58:52.540Z,23.38
2022-07-29T01:01:15.325Z,23.41
2022-07-29T01:03:37.954Z,23.39
2022-07-29T01:06:01.323Z,23.39
2022-07-29T01:08:24.752Z,23.45
2022-07-29T01:10:48.356Z,23.44
2022-07-29T01:13:12.164Z,23.48
2022-07-29T01:15:48.896Z,23.38
2022-07-29T01:18:22.047Z,23.42
2022-07-29T01:21:06.588Z,23.42
2022-07-29T01:24:06.532Z,23.41
2022-07-29T01:26:41.084Z,23.34
2022-07-29T01:29:17.982Z,23.42
2022-07-29T01:32:22.579Z,23.48
2022-07-29T01:34:55.511Z,23.37
2022-07-29T01:37:33.980Z,23.41
2022-07-29T01:39:59.915Z,23.44
2022-07-29T01:42:45.242Z,23.41
2022-07-29T01:45:18.248Z,23.38
2022-07-29T01:47:55.846Z,23.34
2022-07-29T01:50:22.416Z,23.32
2022-07-29T01:52:57.929Z,23.32
2022-07-29T01:55:23.290Z,23.28
2022-07-29T01:57:48.645Z,23.22
2022-07-29T02:00:12.778Z,23.25
2022-07-29T02:02:38.120Z,23.27
2022-07-29T02:05:02.627Z,23.25
2022-07-29T02:07:29.588Z,23.11
2022-07-29T02:09:53.897Z,23.17
2022-07-29T02:12:18.873Z,23.14
2022-07-29T02:14:45.643Z,23.10
2022-07-29T02:17:09.020Z,23.17
2022-07-29T02:19:33.999Z,23.10
2022-07-29T02:21:58.660Z,23.10
2022-07-29T02:24:23.433Z,23.07
2022-07-29T02:26:46.766Z,22.96
2022-07-29T02:29:10.861Z,23.01
2022-07-29T02:31:37.294Z,22.91
2022-07-29T02:34:01.710Z,22.99
2022-07-29T02:36:25.979Z,23.00
2022-07-29T02:38:52.754Z,22.87
2022-07-29T02:41:19.541Z,22.82
2022-07-29T02:43:44.781Z,22.84
2022-07-29T02:46:29.395Z,22.83
2022-07-29T02:49:18.352Z,22.79
2022-07-29T02:51:53.954Z,22.82
2022-07-29T02:54:47.230Z,22.74
2022-07-29T02:57:25.396Z,22.74
2022-07-29T02:59:52.571Z,22.79
2022-07-29T03:02:16.347Z,22.74
2022-07-29T03:04:42.633Z,22.72
2022-07-29T03:07:06.436Z,22.67
2022-07-29T03:09:30.255Z,22.70
2022-07-29T03:11:55.430Z,22.66
2022-07-29T03:14:20.591Z,22.64
2022-07-29T03:16:43.888Z,22.63
2022-07-29T03:19:06.834Z,22.62
2022-07-29T03:21:29.413Z,22.62
2022-07-29T03:23:52.232Z,22.56
2022-07-29T03:26:15.124Z,22.56
2022-07-29T03:28:37.929Z,22.52
2022-07-29T03:31:02.444Z,22.52
2022-07-29T03:33:25.246Z,22.56
2022-07-29T03:35:47.906Z,22.53
2022-07-29T03:38:10.709Z,22.52
2022-07-29T03:40:57.107Z,22.52
2022-07-29T03:43:21.333Z,22.55
2022-07-29T03:45:46.777Z,22.53
2022-07-29T03:48:13.760Z,22.48
2022-07-29T03:50:36.740Z,22.49
2022-07-29T03:52:59.918Z,22.53
2022-07-29T03:55:23.193Z,22.49
2022-07-29T03:57:46.879Z,22.55
2022-07-29T04:00:10.518Z,22.56
2022-07-29T04:02:33.918Z,22.57
2022-07-29T04:04:57.040Z,22.62
2022-07-29T04:07:19.864Z,22.59
2022-07-29T04:09:43.501Z,22.57
2022-07-29T04:12:06.416Z,22.62
2022-07-29T04:14:28.928Z,22.62
2022-07-29T04:16:51.522Z,22.64
2022-07-29T04:19:14.492Z,22.69
2022-07-29T04:21:57.966Z,22.70
2022-07-29T04:24:21.079Z,22.66
2022-07-29T04:26:46.133Z,22.69
2022-07-29T04:29:08.846Z,22.69
2022-07-29T04:31:31.535Z,22.73
2022-07-29T04:33:54.257Z,22.82
2022-07-29T04:36:28.795Z,22.99
2022-07-29T04:38:52.483Z,23.08
2022-07-29T04:41:15.218Z,23.29
2022-07-29T04:43:43.317Z,23.52
2022-07-29T04:46:07.779Z,23.63
2022-07-29T04:48:30.977Z,23.77
2022-07-29T04:50:53.587Z,23.69
2022-07-29T04:53:16.295Z,23.82
2022-07-29T04:55:39.033Z,24.00
2022-07-29T04:58:01.900Z,24.23
2022-07-29T05:00:28.061Z,24.40
2022-07-29T05:02:56.124Z,24.48
2022-07-29T05:05:18.822Z,24.54
2022-07-29T05:07:41.930Z,24.57
2022-07-29T05:10:05.115Z,24.71
2022-07-29T05:12:28.688Z,24.71
2022-07-29T05:14:52.201Z,24.81
2022-07-29T05:17:15.481Z,24.60
2022-07-29T05:19:39.538Z,24.68
2022-07-29T05:22:02.538Z,24.67
2022-07-29T05:24:25.228Z,24.76
2022-07-29T05:26:53.072Z,24.78
2022-07-29T05:29:44.172Z,24.65
2022-07-29T05:31:58.379Z,24.54
2022-07-29T05:34:21.256Z,24.81
2022-07-29T05:36:44.009Z,25.00
2022-07-29T05:39:06.553Z,25.27
2022-07-29T05:41:30.047Z,25.38
2022-07-29T05:43:52.892Z,25.23
2022-07-29T05:46:16.223Z,25.58
2022-07-29T05:48:39.951Z,25.73
2022-07-29T05:51:02.886Z,26.05
2022-07-29T05:53:25.595Z,25.71
2022-07-29T05:56:08.870Z,25.55
2022-07-29T05:58:31.757Z,25.37
2022-07-29T06:00:54.947Z,25.60
2022-07-29T06:03:17.512Z,25.77
2022-07-29T06:05:40.094Z,25.92
2022-07-29T06:08:02.739Z,25.89
2022-07-29T06:10:26.953Z,25.92
2022-07-29T06:12:49.658Z,26.05
2022-07-29T06:15:12.260Z,25.99
2022-07-29T06:17:35.020Z,26.20
2022-07-29T06:19:57.935Z,26.50
2022-07-29T06:22:20.670Z,26.57
2022-07-29T06:24:44.918Z,26.60
2022-07-29T06:27:07.569Z,26.60
2022-07-29T06:29:30.154Z,26.28
2022-07-29T06:31:52.811Z,26.16
2022-07-29T06:34:15.508Z,26.19
2022-07-29T06:36:39.688Z,26.15
2022-07-29T06:39:05.458Z,26.25
2022-07-29T06:41:28.650Z,26.35
2022-07-29T06:43:54.575Z,26.60
2022-07-29T06:46:20.999Z,26.70
2022-07-29T06:48:43.984Z,26.97
2022-07-29T06:51:07.177Z,27.26
2022-07-29T06:53:30.560Z,27.28
2022-07-29T06:55:53.271Z,27.25
2022-07-29T06:58:18.883Z,26.97
2022-07-29T07:00:51.380Z,27.06
2022-07-29T07:03:14.348Z,27.02
2022-07-29T07:05:36.900Z,27.06
2022-07-29T07:07:59.643Z,27.15
2022-07-29T07:10:22.309Z,27.39
2022-07-29T07:12:46.699Z,27.29
2022-07-29T07:15:09.630Z,27.16
2022-07-29T07:17:32.163Z,27.26
2022-07-29T07:19:54.692Z,27.09
2022-07-29T07:22:17.493Z,27.31
2022-07-29T07:24:40.239Z,27.33
2022-07-29T07:27:03.123Z,27.25
2022-07-29T07:29:25.951Z,27.33
2022-07-29T07:31:48.678Z,27.38
2022-07-29T07:34:11.310Z,27.42
2022-07-29T07:36:34.036Z,27.59
2022-07-29T07:38:56.829Z,28.18
2022-07-29T07:41:19.528Z,28.63
2022-07-29T07:43:42.243Z,28.42
2022-07-29T07:46:05.522Z,28.27
2022-07-29T07:48:28.149Z,28.11
2022-07-29T07:50:51.602Z,28.07
2022-07-29T07:53:14.522Z,28.04
2022-07-29T07:56:09.252Z,28.18
2022-07-29T07:58:28.066Z,28.24
2022-07-29T08:00:50.861Z,28.17
2022-07-29T08:03:17.053Z,28.27
2022-07-29T08:05:40.018Z,28.32
2022-07-29T08:08:02.647Z,28.38
2022-07-29T08:10:44.069Z,28.37
2022-07-29T08:13:08.259Z,28.48
2022-07-29T08:15:30.871Z,28.55
2022-07-29T08:17:53.620Z,28.66
2022-07-29T08:20:16.255Z,28.58
2022-07-29T08:22:38.934Z,28.76
2022-07-29T08:25:01.684Z,28.86
2022-07-29T08:27:43.006Z,28.86
2022-07-29T08:30:07.868Z,28.99
2022-07-29T08:32:52.489Z,29.03
2022-07-29T08:35:14.928Z,28.83
2022-07-29T08:37:37.623Z,28.82
2022-07-29T08:40:00.365Z,28.97
2022-07-29T08:42:23.019Z,29.17
2022-07-29T08:44:46.036Z,29.38
2022-07-29T08:47:08.953Z,29.45
2022-07-29T08:49:33.860Z,29.45
2022-07-29T08:51:58.477Z,29.61
2022-07-29T08:54:23.459Z,29.88
2022-07-29T08:56:50.772Z,30.03
2022-07-29T08:59:14.727Z,29.83
2022-07-29T09:01:42.860Z,29.93
2022-07-29T09:04:12.389Z,29.85
2022-07-29T09:06:38.017Z,29.66
2022-07-29T09:09:01.303Z,29.90
2022-07-29T09:11:24.283Z,30.13
2022-07-29T09:13:47.598Z,30.13
2022-07-29T09:16:10.941Z,30.38
2022-07-29T09:18:42.141Z,30.60
2022-07-29T09:21:25.186Z,30.82
2022-07-29T09:24:20.170Z,30.79
2022-07-29T09:26:45.114Z,30.86
2022-07-29T09:29:16.079Z,30.75
2022-07-29T09:31:41.457Z,30.67
2022-07-29T09:34:05.114Z,30.64
2022-07-29T09:36:28.443Z,30.74
2022-07-29T09:39:04.232Z,30.86
2022-07-29T09:41:28.337Z,31.30
2022-07-29T09:44:00.780Z,31.39
2022-07-29T09:46:24.727Z,31.71
2022-07-29T09:49:07.319Z,31.88
2022-07-29T09:51:38.269Z,31.77
2022-07-29T09:54:04.509Z,31.89
2022-07-29T09:56:41.106Z,31.91
2022-07-29T09:59:09.792Z,31.91
2022-07-29T10:01:32.392Z,31.88
2022-07-29T10:03:55.130Z,32.05
2022-07-29T10:06:17.796Z,32.05
2022-07-29T10:08:42.951Z,31.85
2022-07-29T10:11:17.473Z,31.91
2022-07-29T10:13:41.879Z,32.09
2022-07-29T10:16:04.996Z,32.29
2022-07-29T10:18:28.153Z,32.19
2022-07-29T10:20:51.399Z,32.18
2022-07-29T10:23:15.021Z,32.24
2022-07-29T10:25:38.034Z,32.31
2022-07-29T10:28:00.936Z,32.22
2022-07-29T10:30:25.789Z,32.56
2022-07-29T10:33:07.801Z,32.39
2022-07-29T10:35:52.138Z,32.67
2022-07-29T10:38:48.422Z,32.92
2022-07-29T10:41:32.443Z,32.92
2022-07-29T10:44:17.211Z,32.96
2022-07-29T10:46:42.402Z,32.91
2022-07-29T10:49:15.319Z,32.74
2022-07-29T10:52:08.272Z,32.62
2022-07-29T10:54:42.461Z,32.64
2022-07-29T10:57:53.381Z,32.71
2022-07-29T11:00:12.528Z,33.06
2022-07-29T11:02:43.940Z,33.22
2022-07-29T11:05:14.641Z,33.29
2022-07-29T11:07:42.614Z,33.14
2022-07-29T11:10:15.392Z,32.98
2022-07-29T11:12:39.513Z,32.67
2022-07-29T11:15:03.711Z,32.74
2022-07-29T11:17:27.223Z,32.98
2022-07-29T11:20:34.142Z,32.70
2022-07-29T11:23:00.037Z,32.60
2022-07-29T11:25:43.071Z,32.70
2022-07-29T11:28:22.807Z,33.00
2022-07-29T11:30:50.751Z,33.22
2022-07-29T11:33:54.208Z,33.34
2022-07-29T11:36:16.745Z,33.42
2022-07-29T11:38:41.630Z,33.12
2022-07-29T11:41:36.876Z,33.17
2022-07-29T11:44:01.388Z,33.12
2022-07-29T11:46:47.917Z,33.38
2022-07-29T11:49:11.646Z,33.75
2022-07-29T11:51:48.284Z,33.86
2022-07-29T11:54:15.732Z,33.93
2022-07-29T11:56:44.679Z,34.21
2022-07-29T11:59:10.221Z,34.40
2022-07-29T12:04:14.185Z,33.90
2022-07-29T12:06:36.997Z,33.72
2022-07-29T12:09:01.206Z,33.82
2022-07-29T12:11:23.873Z,33.63
2022-07-29T12:13:46.470Z,33.56
2022-07-29T12:16:14.645Z,33.07
2022-07-29T12:18:37.473Z,33.08
2022-07-29T12:21:04.676Z,32.97
2022-07-29T12:23:29.344Z,32.80
2022-07-29T12:25:59.480Z,32.71
2022-07-29T12:28:26.867Z,32.98
2022-07-29T12:30:51.715Z,33.28
2022-07-29T12:33:18.629Z,33.17
2022-07-29T12:35:42.537Z,33.25
2022-07-29T12:38:05.772Z,33.24
2022-07-29T12:40:28.441Z,33.32
2022-07-29T12:43:10.533Z,33.29
2022-07-29T12:45:33.274Z,33.07
2022-07-29T12:47:55.863Z,32.96
2022-07-29T12:50:22.141Z,32.86
2022-07-29T12:52:47.335Z,32.73
2022-07-29T12:55:09.950Z,32.57
2022-07-29T12:57:33.097Z,32.40
2022-07-29T13:00:14.051Z,32.24
2022-07-29T13:02:37.549Z,32.64
2022-07-29T13:05:01.512Z,32.81
2022-07-29T13:07:54.395Z,32.86
2022-07-29T13:10:19.690Z,32.79
2022-07-29T13:13:12.899Z,32.87
2022-07-29T13:15:36.279Z,33.15
2022-07-29T13:17:59.408Z,33.03
2022-07-29T13:20:25.790Z,33.21
2022-07-29T13:22:49.494Z,32.91
2022-07-29T13:25:12.648Z,32.77
2022-07-29T13:27:37.447Z,32.76
2022-07-29T13:30:02.054Z,32.64
2022-07-29T13:32:28.210Z,32.56
2022-07-29T13:34:51.487Z,32.49
2022-07-29T13:37:14.197Z,32.42
2022-07-29T13:39:38.525Z,32.76
2022-07-29T13:42:01.603Z,32.88
2022-07-29T13:44:24.391Z,33.10
2022-07-29T13:46:46.894Z,33.11
2022-07-29T13:49:09.694Z,33.04
2022-07-29T13:51:32.400Z,32.86
2022-07-29T13:53:55.089Z,32.60
2022-07-29T13:56:17.671Z,32.31
2022-07-29T13:58:40.902Z,32.25
2022-07-29T14:01:03.740Z,32.19
2022-07-29T14:03:26.669Z,32.43
2022-07-29T14:05:49.316Z,32.64
2022-07-29T14:08:11.969Z,32.43
2022-07-29T14:10:34.495Z,32.33
2022-07-29T14:12:57.217Z,32.37
2022-07-29T14:15:19.736Z,32.73
2022-07-29T14:17:42.418Z,33.03
2022-07-29T14:20:05.839Z,33.18
2022-07-29T14:22:28.837Z,32.94
2022-07-29T14:24:51.545Z,32.90
2022-07-29T14:27:14.304Z,33.04
2022-07-29T14:29:38.886Z,33.11
2022-07-29T14:32:02.271Z,33.38
2022-07-29T14:34:25.460Z,33.31
2022-07-29T14:36:48.061Z,33.28
2022-07-29T14:39:10.741Z,33.15
2022-07-29T14:41:33.837Z,33.37
2022-07-29T14:43:56.517Z,33.27
2022-07-29T14:46:19.305Z,33.54
2022-07-29T14:48:41.986Z,33.46
2022-07-29T14:51:05.566Z,33.46
2022-07-29T14:53:28.843Z,33.63
2022-07-29T14:55:51.796Z,33.77
2022-07-29T14:58:16.694Z,33.66
2022-07-29T15:00:39.552Z,33.61
2022-07-29T15:03:03.087Z,33.65
2022-07-29T15:05:26.584Z,33.54
2022-07-29T15:07:49.205Z,33.70
2022-07-29T15:10:11.913Z,33.88
2022-07-29T15:12:38.203Z,33.83
2022-07-29T15:15:00.836Z,33.77
2022-07-29T15:17:23.501Z,33.72
2022-07-29T15:19:46.045Z,33.46
2022-07-29T15:22:08.674Z,33.29
2022-07-29T15:24:31.564Z,33.07
2022-07-29T15:26:54.239Z,32.92
2022-07-29T15:29:17.259Z,32.90
2022-07-29T15:31:40.105Z,33.11
2022-07-29T15:34:06.293Z,33.31
2022-07-29T15:36:50.711Z,33.45
2022-07-29T15:39:12.227Z,33.24
2022-07-29T15:41:35.156Z,33.06
2022-07-29T15:43:57.792Z,32.97
2022-07-29T15:46:39.352Z,33.34
2022-07-29T15:49:03.523Z,33.37
2022-07-29T15:51:26.415Z,33.42
2022-07-29T15:53:53.370Z,33.44
2022-07-29T15:56:16.579Z,33.59
2022-07-29T15:58:39.201Z,33.17
2022-07-29T16:01:01.926Z,33.07
2022-07-29T16:03:24.792Z,33.00
2022-07-29T16:05:47.405Z,32.94
2022-07-29T16:08:10.287Z,32.86
2022-07-29T16:10:32.866Z,32.76
2022-07-29T16:12:55.519Z,32.53
2022-07-29T16:15:18.195Z,32.52
2022-07-29T16:17:40.941Z,32.40
2022-07-29T16:20:04.794Z,32.19
2022-07-29T16:22:27.559Z,32.29
2022-07-29T16:24:50.085Z,32.32
2022-07-29T16:27:12.832Z,32.43
2022-07-29T16:29:37.177Z,32.62
2022-07-29T16:31:59.939Z,32.60
2022-07-29T16:34:22.492Z,32.48
2022-07-29T16:37:06.116Z,32.46
2022-07-29T16:39:28.772Z,32.59
2022-07-29T16:41:51.371Z,32.66
2022-07-29T16:44:14.480Z,32.73
2022-07-29T16:46:37.437Z,32.60
2022-07-29T16:49:01.806Z,32.35
2022-07-29T16:51:24.495Z,32.16
2022-07-29T16:53:49.756Z,32.02
2022-07-29T16:56:13.228Z,32.02
2022-07-29T16:58:38.268Z,31.88
2022-07-29T17:01:01.956Z,31.84
2022-07-29T17:03:24.687Z,31.81
2022-07-29T17:05:50.661Z,31.76
2022-07-29T17:08:16.986Z,31.70
2022-07-29T17:10:39.646Z,31.47
2022-07-29T17:13:02.424Z,31.36
2022-07-29T17:15:25.151Z,31.31
2022-07-29T17:17:55.450Z,31.29
2022-07-29T17:20:19.325Z,31.31
2022-07-29T17:22:43.042Z,31.27
2022-07-29T17:25:06.975Z,31.13
2022-07-29T17:27:29.607Z,31.11
2022-07-29T17:29:52.562Z,31.06
2022-07-29T17:32:15.139Z,31.03
2022-07-29T17:34:39.783Z,30.95
2022-07-29T17:37:02.801Z,30.69
2022-07-29T17:39:25.471Z,30.74
2022-07-29T17:41:48.063Z,30.71
2022-07-29T17:44:10.762Z,30.63
2022-07-29T17:46:33.481Z,30.51
2022-07-29T17:48:57.513Z,30.48
2022-07-29T17:51:20.686Z,30.43
2022-07-29T17:53:43.593Z,30.34
2022-07-29T17:56:06.469Z,30.23
2022-07-29T17:58:29.035Z,30.07
2022-07-29T18:00:51.971Z,30.06
2022-07-29T18:03:15.096Z,30.12
2022-07-29T18:05:37.808Z,29.96
2022-07-29T18:08:00.835Z,29.92
2022-07-29T18:10:23.499Z,29.92
2022-07-29T18:12:46.088Z,29.82
2022-07-29T18:15:09.041Z,29.82
2022-07-29T18:17:34.507Z,29.79
2022-07-29T18:20:15.046Z,29.69
2022-07-29T18:22:37.834Z,29.63
2022-07-29T18:25:00.740Z,29.51
2022-07-29T18:27:26.004Z,29.41
2022-07-29T18:29:51.020Z,29.31
2022-07-29T18:32:13.865Z,29.24
2022-07-29T18:34:36.600Z,29.20
2022-07-29T18:36:59.590Z,29.20
2022-07-29T18:39:22.748Z,29.24
2022-07-29T18:41:50.018Z,29.21
2022-07-29T18:44:17.000Z,29.23
2022-07-29T18:46:40.075Z,29.21
2022-07-29T18:49:10.078Z,29.27
2022-07-29T18:51:33.165Z,29.25
2022-07-29T18:53:55.821Z,29.21
2022-07-29T18:56:18.542Z,29.24
2022-07-29T18:58:41.287Z,29.23
2022-07-29T19:01:04.015Z,29.25
2022-07-29T19:03:26.684Z,29.25
2022-07-29T19:05:49.560Z,29.25
2022-07-29T19:08:12.275Z,29.21
2022-07-29T19:10:34.870Z,29.07
2022-07-29T19:12:58.008Z,29.03
2022-07-29T19:15:20.800Z,28.99
2022-07-29T19:17:43.631Z,28.89
2022-07-29T19:20:07.564Z,28.77
2022-07-29T19:22:30.373Z,28.63
2022-07-29T19:24:53.413Z,28.67
2022-07-29T19:27:17.279Z,28.69
2022-07-29T19:29:39.987Z,28.72
2022-07-29T19:32:02.708Z,28.69
2022-07-29T19:34:25.297Z,28.70
2022-07-29T19:36:47.918Z,28.63
2022-07-29T19:39:11.518Z,28.65
2022-07-29T19:41:34.419Z,28.51
2022-07-29T19:43:57.365Z,28.39
2022-07-29T19:46:23.784Z,28.31
2022-07-29T19:48:46.578Z,28.25
2022-07-29T19:51:09.293Z,28.21
2022-07-29T19:53:32.969Z,28.24
2022-07-29T19:55:55.660Z,28.11
2022-07-29T19:58:18.212Z,28.01
2022-07-29T20:00:45.391Z,27.89
2022-07-29T20:03:08.118Z,27.74
2022-07-29T20:05:31.425Z,27.42
2022-07-29T20:07:54.209Z,27.43
2022-07-29T20:10:17.055Z,27.43
2022-07-29T20:12:39.620Z,27.36
2022-07-29T20:15:02.240Z,27.43
2022-07-29T20:17:27.283Z,27.46
2022-07-29T20:19:52.967Z,27.47
2022-07-29T20:22:21.082Z,27.52
2022-07-29T20:24:45.358Z,27.59
2022-07-29T20:27:13.611Z,27.62
2022-07-29T20:29:38.398Z,27.54
2022-07-29T20:32:01.483Z,27.47
2022-07-29T20:34:24.207Z,27.29
2022-07-29T20:36:48.707Z,27.11
2022-07-29T20:39:11.318Z,27.04
2022-07-29T20:41:33.997Z,26.92
2022-07-29T20:43:56.844Z,26.88
2022-07-29T20:46:19.650Z,26.95
2022-07-29T20:48:42.477Z,26.97
2022-07-29T20:51:05.272Z,26.90
2022-07-29T20:53:28.038Z,26.92
2022-07-29T20:55:51.329Z,26.94
2022-07-29T20:58:14.353Z,26.84
2022-07-29T21:00:37.367Z,26.87
2022-07-29T21:03:00.062Z,26.88
2022-07-29T21:05:22.790Z,26.95
2022-07-29T21:07:45.696Z,26.97
2022-07-29T21:10:08.541Z,26.98
2022-07-29T21:12:31.514Z,26.88
2022-07-29T21:14:54.164Z,26.77
2022-07-29T21:17:17.533Z,26.76
2022-07-29T21:19:43.767Z,26.73
2022-07-29T21:22:06.396Z,26.74
2022-07-29T21:24:29.261Z,26.64
2022-07-29T21:27:18.263Z,26.64
2022-07-29T21:29:35.224Z,26.67
2022-07-29T21:31:57.774Z,26.57
2022-07-29T21:34:20.417Z,26.50
2022-07-29T21:36:48.333Z,26.57
2022-07-29T21:39:11.382Z,26.51
2022-07-29T21:41:34.465Z,26.51
2022-07-29T21:43:58.301Z,26.51
2022-07-29T21:46:24.599Z,26.43
2022-07-29T21:48:47.410Z,26.18
2022-07-29T21:51:10.073Z,26.20
2022-07-29T21:53:32.755Z,26.08
2022-07-29T21:55:55.609Z,26.06
2022-07-29T21:58:18.587Z,26.12
2022-07-29T22:00:42.224Z,26.16
2022-07-29T22:03:05.519Z,26.15
2022-07-29T22:05:29.029Z,26.15
2022-07-29T22:07:56.320Z,26.18
2022-07-29T22:10:19.633Z,26.12
2022-07-29T22:12:42.330Z,26.12
2022-07-29T22:15:05.255Z,26.13
2022-07-29T22:17:28.544Z,26.11
2022-07-29T22:19:52.028Z,26.05
2022-07-29T22:22:14.799Z,25.94
2022-07-29T22:24:37.648Z,25.84
2022-07-29T22:27:00.523Z,25.80
2022-07-29T22:29:23.324Z,25.73
2022-07-29T22:31:46.145Z,25.77
2022-07-29T22:34:12.741Z,25.67
2022-07-29T22:36:35.432Z,25.54
2022-07-29T22:38:57.990Z,25.55
2022-07-29T22:41:20.814Z,25.58
2022-07-29T22:43:43.385Z,25.37
2022-07-29T22:46:11.531Z,25.28
2022-07-29T22:48:34.454Z,25.33
2022-07-29T22:50:57.094Z,25.23
2022-07-29T22:53:19.685Z,25.23
2022-07-29T22:55:42.386Z,25.15
2022-07-29T22:58:05.351Z,25.10
2022-07-29T23:00:28.191Z,24.98
2022-07-29T23:02:50.698Z,24.96
2022-07-29T23:05:15.705Z,24.83
2022-07-29T23:07:38.525Z,24.86
2022-07-29T23:10:01.502Z,24.76
2022-07-29T23:12:24.160Z,24.69
2022-07-29T23:14:46.713Z,24.58
2022-07-29T23:17:09.467Z,24.60
2022-07-29T23:19:32.620Z,24.62
2022-07-29T23:21:55.256Z,24.65
2022-07-29T23:24:17.979Z,24.61
2022-07-29T23:26:40.930Z,24.50
2022-07-29T23:29:04.061Z,24.50
2022-07-29T23:31:26.671Z,24.38
2022-07-29T23:33:49.222Z,24.42
2022-07-29T23:36:11.867Z,24.41
2022-07-29T23:38:34.609Z,24.37
2022-07-29T23:41:08.943Z,24.35
2022-07-29T23:43:31.619Z,24.34
2022-07-29T23:45:54.301Z,24.28
2022-07-29T23:48:17.511Z,24.16
2022-07-29T23:50:40.149Z,24.14
2022-07-29T23:53:02.780Z,24.12
2022-07-29T23:55:38.181Z,24.09
2022-07-29T23:58:02.975Z,23.99
